TimeCST,TemperatureF,Dew PointF,Humidity,Sea Level PressureIn,VisibilityMPH,Wind Direction,Wind SpeedMPH,Gust SpeedMPH,PrecipitationIn,Events,Conditions,WindDirDegrees,DateUTC
12:15 AM,41.4,36.7,83,30.24,10.0,NW,6.9,-,N/A,,Clear,310,2013-11-07 06:15:00
12:35 AM,41.2,36.0,82,30.25,10.0,NW,6.9,-,N/A,,Clear,310,2013-11-07 06:35:00
12:55 AM,41.0,35.8,82,30.25,10.0,WNW,8.1,-,N/A,,Clear,300,2013-11-07 06:55:00
1:15 AM,40.5,35.6,83,30.26,10.0,WNW,9.2,-,N/A,,Clear,300,2013-11-07 07:15:00
1:35 AM,40.5,35.4,82,30.27,10.0,NW,8.1,-,N/A,,Clear,310,2013-11-07 07:35:00
1:55 AM,39.7,34.9,83,30.27,10.0,NW,6.9,-,N/A,,Clear,310,2013-11-07 07:55:00
2:15 AM,39.4,34.7,83,30.28,10.0,WNW,6.9,-,N/A,,Clear,300,2013-11-07 08:15:00
2:35 AM,38.8,34.2,83,30.28,10.0,WNW,6.9,-,N/A,,Clear,290,2013-11-07 08:35:00
2:55 AM,38.7,33.8,83,30.28,10.0,WNW,5.8,-,N/A,,Clear,300,2013-11-07 08:55:00
3:15 AM,38.3,33.8,84,30.29,10.0,WNW,5.8,-,N/A,,Clear,290,2013-11-07 09:15:00
3:35 AM,37.8,33.6,85,30.29,10.0,WNW,5.8,-,N/A,,Clear,290,2013-11-07 09:35:00
3:55 AM,37.4,33.3,85,30.30,10.0,WNW,5.8,-,N/A,,Clear,290,2013-11-07 09:55:00
4:15 AM,37.4,33.1,84,30.30,10.0,WNW,5.8,-,N/A,,Clear,300,2013-11-07 10:15:00
4:35 AM,36.5,32.7,86,30.31,10.0,NW,3.5,-,N/A,,Clear,310,2013-11-07 10:35:00
4:55 AM,36.1,32.5,87,30.31,10.0,WNW,4.6,-,N/A,,Clear,290,2013-11-07 10:55:00
5:15 AM,36.5,32.7,86,30.31,10.0,West,3.5,-,N/A,,Clear,280,2013-11-07 11:15:00
5:35 AM,34.9,32.0,89,30.32,10.0,WSW,3.5,-,N/A,,Clear,250,2013-11-07 11:35:00
5:55 AM,34.7,32.0,90,30.33,10.0,Calm,Calm,-,N/A,,Clear,0,2013-11-07 11:55:00
6:15 AM,34.5,32.2,91,30.33,10.0,Calm,Calm,-,N/A,,Clear,0,2013-11-07 12:15:00
6:35 AM,33.4,32.0,94,30.34,10.0,WSW,3.5,-,N/A,,Clear,240,2013-11-07 12:35:00
6:55 AM,34.5,32.2,91,30.34,10.0,WSW,3.5,-,N/A,,Clear,250,2013-11-07 12:55:00
7:15 AM,35.4,32.9,91,30.36,10.0,SW,5.8,-,N/A,,Clear,230,2013-11-07 13:15:00
7:35 AM,36.9,33.6,88,30.37,10.0,WSW,4.6,-,N/A,,Clear,240,2013-11-07 13:35:00
7:55 AM,38.3,34.3,86,30.36,10.0,West,3.5,-,N/A,,Clear,280,2013-11-07 13:55:00
8:15 AM,39.9,34.5,81,30.37,10.0,West,4.6,-,N/A,,Clear,260,2013-11-07 14:15:00
8:35 AM,41.0,34.2,77,30.38,10.0,West,4.6,-,N/A,,Clear,260,2013-11-07 14:35:00
8:55 AM,42.3,35.1,76,30.38,10.0,WSW,4.6,-,N/A,,Clear,240,2013-11-07 14:55:00
9:15 AM,43.3,34.7,72,30.38,10.0,Calm,Calm,-,N/A,,Clear,0,2013-11-07 15:15:00
9:35 AM,45.3,35.1,67,30.38,10.0,WSW,5.8,-,N/A,,Clear,250,2013-11-07 15:35:00
9:55 AM,46.2,36.3,68,30.38,10.0,WSW,5.8,-,N/A,,Clear,240,2013-11-07 15:55:00
10:15 AM,46.8,35.4,65,30.37,10.0,SW,4.6,-,N/A,,Clear,230,2013-11-07 16:15:00
10:35 AM,47.8,34.9,61,30.37,10.0,West,5.8,-,N/A,,Clear,280,2013-11-07 16:35:00
10:55 AM,49.3,34.5,57,30.37,10.0,West,6.9,-,N/A,,Clear,280,2013-11-07 16:55:00
11:15 AM,50.2,33.6,53,30.36,10.0,West,11.5,16.1,N/A,,Clear,270,2013-11-07 17:15:00
11:35 AM,51.1,34.2,52,30.35,10.0,WNW,10.4,16.1,N/A,,Clear,290,2013-11-07 17:35:00
11:55 AM,51.1,34.0,52,30.34,10.0,West,9.2,-,N/A,,Clear,280,2013-11-07 17:55:00
12:15 PM,52.0,35.2,53,30.33,10.0,West,10.4,-,N/A,,Clear,270,2013-11-07 18:15:00
12:35 PM,52.2,34.9,52,30.32,10.0,West,8.1,-,N/A,,Clear,270,2013-11-07 18:35:00
12:55 PM,52.9,35.6,52,30.32,10.0,WSW,10.4,-,N/A,,Clear,240,2013-11-07 18:55:00
1:15 PM,53.2,36.5,53,30.31,10.0,West,9.2,-,N/A,,Scattered Clouds,260,2013-11-07 19:15:00
1:35 PM,53.6,36.5,52,30.30,10.0,WSW,11.5,16.1,N/A,,Scattered Clouds,250,2013-11-07 19:35:00
1:55 PM,54.1,36.5,51,30.30,10.0,WSW,10.4,19.6,N/A,,Scattered Clouds,250,2013-11-07 19:55:00
2:15 PM,54.5,36.3,50,30.29,10.0,WSW,8.1,-,N/A,,Clear,250,2013-11-07 20:15:00
2:35 PM,54.7,36.7,51,30.28,10.0,West,12.7,18.4,N/A,,Clear,270,2013-11-07 20:35:00
2:55 PM,54.5,36.5,51,30.28,10.0,West,15.0,18.4,N/A,,Clear,260,2013-11-07 20:55:00
3:15 PM,54.7,36.7,51,30.28,10.0,West,11.5,16.1,N/A,,Clear,260,2013-11-07 21:15:00
3:35 PM,54.5,37.0,52,30.28,10.0,West,10.4,-,N/A,,Clear,280,2013-11-07 21:35:00
3:55 PM,54.1,37.6,54,30.28,10.0,WSW,8.1,-,N/A,,Clear,250,2013-11-07 21:55:00
4:35 PM,52.2,37.4,57,30.28,10.0,West,5.8,-,N/A,,Clear,270,2013-11-07 22:35:00
4:55 PM,50.9,37.4,60,30.28,10.0,West,6.9,-,N/A,,Clear,260,2013-11-07 22:55:00
5:15 PM,49.1,37.4,64,30.29,10.0,WSW,4.6,-,N/A,,Clear,250,2013-11-07 23:15:00
5:35 PM,48.2,37.4,66,30.29,10.0,WSW,3.5,-,N/A,,Clear,250,2013-11-07 23:35:00
5:55 PM,48.6,36.7,64,30.30,10.0,Calm,Calm,-,N/A,,Clear,0,2013-11-07 23:55:00
6:15 PM,43.9,36.9,76,30.30,10.0,Calm,Calm,-,N/A,,Clear,0,2013-11-08 00:15:00
6:35 PM,42.8,37.2,81,30.30,10.0,Calm,Calm,-,N/A,,Clear,0,2013-11-08 00:35:00
6:55 PM,42.1,36.9,82,30.31,10.0,Calm,Calm,-,N/A,,Clear,0,2013-11-08 00:55:00
7:15 PM,40.6,36.9,86,30.31,10.0,Calm,Calm,-,N/A,,Clear,0,2013-11-08 01:15:00
7:35 PM,41.4,36.9,84,30.31,10.0,Calm,Calm,-,N/A,,Clear,0,2013-11-08 01:35:00
7:55 PM,42.3,37.8,84,30.32,10.0,Calm,Calm,-,N/A,,Clear,0,2013-11-08 01:55:00
8:15 PM,41.2,37.0,85,30.32,10.0,Calm,Calm,-,N/A,,Clear,0,2013-11-08 02:15:00
8:35 PM,37.8,34.9,89,30.33,10.0,Calm,Calm,-,N/A,,Clear,0,2013-11-08 02:35:00
8:55 PM,38.1,36.1,93,30.33,10.0,Calm,Calm,-,N/A,,Clear,0,2013-11-08 02:55:00
9:15 PM,37.6,35.1,91,30.33,10.0,Calm,Calm,-,N/A,,Clear,0,2013-11-08 03:15:00
9:35 PM,38.1,35.6,91,30.33,10.0,Calm,Calm,-,N/A,,Clear,0,2013-11-08 03:35:00
9:55 PM,37.9,35.2,90,30.33,10.0,Calm,Calm,-,N/A,,Clear,0,2013-11-08 03:55:00
10:15 PM,37.8,35.8,93,30.33,10.0,Calm,Calm,-,N/A,,Clear,0,2013-11-08 04:15:00
10:35 PM,36.9,34.9,93,30.32,10.0,Calm,Calm,-,N/A,,Clear,0,2013-11-08 04:35:00
10:55 PM,36.0,34.3,94,30.32,5.0,Calm,Calm,-,N/A,,Clear,0,2013-11-08 04:55:00
11:15 PM,35.8,34.2,94,30.33,10.0,Calm,Calm,-,N/A,,Clear,0,2013-11-08 05:15:00
11:35 PM,36.3,34.7,94,30.33,10.0,Calm,Calm,-,N/A,,Clear,0,2013-11-08 05:35:00
11:55 PM,35.8,34.0,93,30.33,10.0,Calm,Calm,-,N/A,,Clear,0,2013-11-08 05:55:00